KHEQ

Details ICAO KHEQ
Name HOLYOKE
Region United States
Timezone America/Denver (UTC-7.0)
Plans Departing 4
Arriving 1
Stats Elevation 3,730 ft / 1,137 m (AMSL)
Location 40.569431° -102.272689°
Runways 1
Magnetic Variation 6.761° E
Sunrise 2017-12-18 14:09:03 UTC / 2017-12-18 07:09:03 Local
Sunset 2017-12-18 23:25:20 UTC / 2017-12-18 16:25:20 Local
Advertisement - Login to hide

Runways

ID Width Length Bearing (true) Bearing (mag) Surface Threshold Offset Overrun Length
14 75 ft / 23 m 5,002 ft / 1,525 m 148.81° 142.05° Asphalt 0 ft / 0 m 0 ft / 0 m
32 75 ft / 23 m 5,002 ft / 1,525 m 328.82° 322.06° Asphalt 0 ft / 0 m 0 ft / 0 m

Map

Weather


0- 5 10 15 20 25 30 35+ Temperature / ° C

Clouds and Precipitation
Forecast for 2017-12-18 12:00 UTC. Updated 7 minutes ago

Ground ~20,000 ft ~40,000 ft Winds

METAR

KHEQ 180710Z AUTO 29005KT 10SM CLR M03/M05 A2997 RMK AO2

TAF

Not found

Frequencies

Recorded 119.27 MHz AWOS 3
Unicom 122.70 MHz CTAF/UNICOM
Warning: Do not use this data for real-world aviation or navigation. No guarantee of current accuracy is given.